sensor_id;sensor_type;location;lat;lon;timestamp;temperature;humidity
16263;DHT22;8239;48.594;8.598;2023-05-08T00:01:08;12.20;99.90
16263;DHT22;8239;48.594;8.598;2023-05-08T00:03:35;12.20;99.90
16263;DHT22;8239;48.594;8.598;2023-05-08T00:06:03;12.20;99.90
16263;DHT22;8239;48.594;8.598;2023-05-08T00:08:30;12.30;99.90
16263;DHT22;8239;48.594;8.598;2023-05-08T00:11:02;12.30;99.90
16263;DHT22;8239;48.594;8.598;2023-05-08T00:13:28;12.30;99.90
16263;DHT22;8239;48.594;8.598;2023-05-08T00:15:55;12.30;99.90
16263;DHT22;8239;48.594;8.598;2023-05-08T00:18:22;12.30;99.90
16263;DHT22;8239;48.594;8.598;2023-05-08T00:20:49;12.30;99.90
16263;DHT22;8239;48.594;8.598;2023-05-08T00:23:16;12.30;99.90
16263;DHT22;8239;48.594;8.598;2023-05-08T00:25:43;12.40;99.90
16263;DHT22;8239;48.594;8.598;2023-05-08T00:28:12;12.40;99.90
16263;DHT22;8239;48.594;8.598;2023-05-08T00:30:39;12.30;99.90
16263;DHT22;8239;48.594;8.598;2023-05-08T00:33:07;12.30;99.90
16263;DHT22;8239;48.594;8.598;2023-05-08T00:35:34;12.30;99.90
16263;DHT22;8239;48.594;8.598;2023-05-08T00:38:01;12.30;99.90
16263;DHT22;8239;48.594;8.598;2023-05-08T00:40:28;12.30;99.90
16263;DHT22;8239;48.594;8.598;2023-05-08T00:42:55;12.20;99.90
16263;DHT22;8239;48.594;8.598;2023-05-08T00:45:23;12.20;99.90
16263;DHT22;8239;48.594;8.598;2023-05-08T00:47:51;12.20;99.90
16263;DHT22;8239;48.594;8.598;2023-05-08T00:50:18;12.20;99.90
16263;DHT22;8239;48.594;8.598;2023-05-08T00:52:45;12.10;99.90
16263;DHT22;8239;48.594;8.598;2023-05-08T00:55:13;12.10;99.90
16263;DHT22;8239;48.594;8.598;2023-05-08T00:57:40;12.10;99.90
16263;DHT22;8239;48.594;8.598;2023-05-08T01:00:09;12.10;99.90
16263;DHT22;8239;48.594;8.598;2023-05-08T01:02:38;12.10;99.90
16263;DHT22;8239;48.594;8.598;2023-05-08T01:05:05;12.00;99.90
16263;DHT22;8239;48.594;8.598;2023-05-08T01:07:32;12.00;99.90
16263;DHT22;8239;48.594;8.598;2023-05-08T01:09:59;12.00;99.90
16263;DHT22;8239;48.594;8.598;2023-05-08T01:12:33;12.00;99.90
16263;DHT22;8239;48.594;8.598;2023-05-08T01:15:06;11.90;99.90
16263;DHT22;8239;48.594;8.598;2023-05-08T01:17:44;12.00;99.90
16263;DHT22;8239;48.594;8.598;2023-05-08T01:20:29;12.00;99.90
16263;DHT22;8239;48.594;8.598;2023-05-08T01:26:41;12.00;99.90
16263;DHT22;8239;48.594;8.598;2023-05-08T01:29:55;11.90;99.90
16263;DHT22;8239;48.594;8.598;2023-05-08T01:32:33;11.90;99.90
16263;DHT22;8239;48.594;8.598;2023-05-08T01:35:09;11.90;99.90
16263;DHT22;8239;48.594;8.598;2023-05-08T01:37:43;11.90;99.90
16263;DHT22;8239;48.594;8.598;2023-05-08T01:40:20;11.80;99.90
16263;DHT22;8239;48.594;8.598;2023-05-08T01:42:59;11.80;99.90
16263;DHT22;8239;48.594;8.598;2023-05-08T01:45:31;11.80;99.90
16263;DHT22;8239;48.594;8.598;2023-05-08T01:48:04;11.80;99.90
16263;DHT22;8239;48.594;8.598;2023-05-08T01:50:37;11.80;99.90
16263;DHT22;8239;48.594;8.598;2023-05-08T01:53:08;11.80;99.90
16263;DHT22;8239;48.594;8.598;2023-05-08T01:55:37;11.80;99.90
16263;DHT22;8239;48.594;8.598;2023-05-08T01:58:07;11.90;99.90
16263;DHT22;8239;48.594;8.598;2023-05-08T02:00:37;11.90;99.90
16263;DHT22;8239;48.594;8.598;2023-05-08T02:03:08;11.80;99.90
16263;DHT22;8239;48.594;8.598;2023-05-08T02:05:37;11.90;99.90
16263;DHT22;8239;48.594;8.598;2023-05-08T02:08:06;11.90;99.90
16263;DHT22;8239;48.594;8.598;2023-05-08T02:10:35;11.90;99.90
16263;DHT22;8239;48.594;8.598;2023-05-08T02:13:03;11.90;99.90
16263;DHT22;8239;48.594;8.598;2023-05-08T02:15:31;11.90;99.90
16263;DHT22;8239;48.594;8.598;2023-05-08T02:18:02;11.90;99.90
16263;DHT22;8239;48.594;8.598;2023-05-08T02:20:31;12.00;99.90
16263;DHT22;8239;48.594;8.598;2023-05-08T02:22:59;12.00;99.90
16263;DHT22;8239;48.594;8.598;2023-05-08T02:25:29;12.00;99.90
16263;DHT22;8239;48.594;8.598;2023-05-08T02:27:57;12.00;99.90
16263;DHT22;8239;48.594;8.598;2023-05-08T02:30:25;12.00;99.90
16263;DHT22;8239;48.594;8.598;2023-05-08T02:32:55;12.00;99.90
16263;DHT22;8239;48.594;8.598;2023-05-08T02:35:23;12.00;99.90
16263;DHT22;8239;48.594;8.598;2023-05-08T02:37:54;12.10;99.90
16263;DHT22;8239;48.594;8.598;2023-05-08T02:40:25;12.00;99.90
16263;DHT22;8239;48.594;8.598;2023-05-08T02:42:53;12.00;99.90
16263;DHT22;8239;48.594;8.598;2023-05-08T02:45:22;12.00;99.90
16263;DHT22;8239;48.594;8.598;2023-05-08T02:47:58;12.00;99.90
16263;DHT22;8239;48.594;8.598;2023-05-08T02:50:31;12.00;99.90
16263;DHT22;8239;48.594;8.598;2023-05-08T02:53:06;12.00;99.90
16263;DHT22;8239;48.594;8.598;2023-05-08T02:55:47;12.00;99.90
16263;DHT22;8239;48.594;8.598;2023-05-08T02:58:18;12.00;99.90
16263;DHT22;8239;48.594;8.598;2023-05-08T03:00:48;12.00;99.90
16263;DHT22;8239;48.594;8.598;2023-05-08T03:03:22;12.00;99.90
16263;DHT22;8239;48.594;8.598;2023-05-08T03:05:53;11.90;99.90
16263;DHT22;8239;48.594;8.598;2023-05-08T03:08:25;12.00;99.90
16263;DHT22;8239;48.594;8.598;2023-05-08T03:10:57;11.90;99.90
16263;DHT22;8239;48.594;8.598;2023-05-08T03:13:27;12.00;99.90
16263;DHT22;8239;48.594;8.598;2023-05-08T03:15:57;12.00;99.90
16263;DHT22;8239;48.594;8.598;2023-05-08T03:18:29;12.00;99.90
16263;DHT22;8239;48.594;8.598;2023-05-08T03:20:58;12.00;99.90
16263;DHT22;8239;48.594;8.598;2023-05-08T03:23:28;12.00;99.90
16263;DHT22;8239;48.594;8.598;2023-05-08T03:25:57;12.00;99.90
16263;DHT22;8239;48.594;8.598;2023-05-08T03:28:26;12.00;99.90
16263;DHT22;8239;48.594;8.598;2023-05-08T03:30:53;12.00;99.90
16263;DHT22;8239;48.594;8.598;2023-05-08T03:33:22;12.00;99.90
16263;DHT22;8239;48.594;8.598;2023-05-08T03:35:50;12.00;99.90
16263;DHT22;8239;48.594;8.598;2023-05-08T03:38:18;12.00;99.90
16263;DHT22;8239;48.594;8.598;2023-05-08T03:40:46;12.00;99.90
16263;DHT22;8239;48.594;8.598;2023-05-08T03:43:14;11.90;99.90
16263;DHT22;8239;48.594;8.598;2023-05-08T03:45:43;11.90;99.90
16263;DHT22;8239;48.594;8.598;2023-05-08T03:48:11;11.90;99.90
16263;DHT22;8239;48.594;8.598;2023-05-08T03:50:38;11.90;99.90
16263;DHT22;8239;48.594;8.598;2023-05-08T03:53:05;11.80;99.90
16263;DHT22;8239;48.594;8.598;2023-05-08T03:55:32;11.80;99.90
16263;DHT22;8239;48.594;8.598;2023-05-08T03:58:05;11.80;99.90
16263;DHT22;8239;48.594;8.598;2023-05-08T04:00:42;11.80;99.90
16263;DHT22;8239;48.594;8.598;2023-05-08T04:03:22;11.70;99.90
16263;DHT22;8239;48.594;8.598;2023-05-08T04:05:57;11.70;99.90
16263;DHT22;8239;48.594;8.598;2023-05-08T04:08:27;11.70;99.90
16263;DHT22;8239;48.594;8.598;2023-05-08T04:11:03;11.60;99.90
16263;DHT22;8239;48.594;8.598;2023-05-08T04:13:36;11.70;99.90
16263;DHT22;8239;48.594;8.598;2023-05-08T04:16:08;11.70;99.90
16263;DHT22;8239;48.594;8.598;2023-05-08T04:18:45;11.70;99.90
16263;DHT22;8239;48.594;8.598;2023-05-08T04:21:18;11.70;99.90
16263;DHT22;8239;48.594;8.598;2023-05-08T04:23:47;11.70;99.90
16263;DHT22;8239;48.594;8.598;2023-05-08T04:26:17;11.70;99.90
16263;DHT22;8239;48.594;8.598;2023-05-08T04:28:45;11.80;99.90
16263;DHT22;8239;48.594;8.598;2023-05-08T04:31:13;11.80;99.90
16263;DHT22;8239;48.594;8.598;2023-05-08T04:33:42;11.80;99.90
16263;DHT22;8239;48.594;8.598;2023-05-08T04:36:11;11.80;99.90
16263;DHT22;8239;48.594;8.598;2023-05-08T04:38:39;11.80;99.90
16263;DHT22;8239;48.594;8.598;2023-05-08T04:41:06;11.80;99.90
16263;DHT22;8239;48.594;8.598;2023-05-08T04:43:33;11.80;99.90
16263;DHT22;8239;48.594;8.598;2023-05-08T04:46:04;11.80;99.90
16263;DHT22;8239;48.594;8.598;2023-05-08T04:48:31;11.90;99.90
16263;DHT22;8239;48.594;8.598;2023-05-08T04:50:58;11.90;99.90
16263;DHT22;8239;48.594;8.598;2023-05-08T04:53:25;11.90;99.90
16263;DHT22;8239;48.594;8.598;2023-05-08T04:55:52;11.80;99.90
16263;DHT22;8239;48.594;8.598;2023-05-08T04:58:19;11.80;99.90
16263;DHT22;8239;48.594;8.598;2023-05-08T05:00:46;11.90;99.90
16263;DHT22;8239;48.594;8.598;2023-05-08T05:03:15;11.90;99.90
16263;DHT22;8239;48.594;8.598;2023-05-08T05:05:42;11.90;99.90
16263;DHT22;8239;48.594;8.598;2023-05-08T05:08:09;12.00;99.90
16263;DHT22;8239;48.594;8.598;2023-05-08T05:10:37;12.00;99.90
16263;DHT22;8239;48.594;8.598;2023-05-08T05:13:04;12.10;99.90
16263;DHT22;8239;48.594;8.598;2023-05-08T05:15:31;12.10;99.90
16263;DHT22;8239;48.594;8.598;2023-05-08T05:17:58;12.20;99.90
16263;DHT22;8239;48.594;8.598;2023-05-08T05:20:26;12.20;99.90
16263;DHT22;8239;48.594;8.598;2023-05-08T05:22:53;12.20;99.90
16263;DHT22;8239;48.594;8.598;2023-05-08T05:25:20;12.20;99.90
16263;DHT22;8239;48.594;8.598;2023-05-08T05:27:47;12.30;99.90
16263;DHT22;8239;48.594;8.598;2023-05-08T05:30:15;12.30;99.90
16263;DHT22;8239;48.594;8.598;2023-05-08T05:32:42;12.40;99.90
16263;DHT22;8239;48.594;8.598;2023-05-08T05:35:09;12.50;99.90
16263;DHT22;8239;48.594;8.598;2023-05-08T05:37:38;12.50;99.90
16263;DHT22;8239;48.594;8.598;2023-05-08T05:40:06;12.50;99.90
16263;DHT22;8239;48.594;8.598;2023-05-08T05:42:33;12.60;99.90
16263;DHT22;8239;48.594;8.598;2023-05-08T05:45:00;12.70;99.90
16263;DHT22;8239;48.594;8.598;2023-05-08T05:47:27;12.70;99.90
16263;DHT22;8239;48.594;8.598;2023-05-08T05:49:54;12.80;99.90
16263;DHT22;8239;48.594;8.598;2023-05-08T05:52:21;12.90;99.90
16263;DHT22;8239;48.594;8.598;2023-05-08T05:54:49;12.90;99.90
16263;DHT22;8239;48.594;8.598;2023-05-08T05:57:16;13.00;99.90
16263;DHT22;8239;48.594;8.598;2023-05-08T05:59:44;13.10;99.90
16263;DHT22;8239;48.594;8.598;2023-05-08T06:02:11;13.20;99.90
16263;DHT22;8239;48.594;8.598;2023-05-08T06:04:43;13.30;99.90
16263;DHT22;8239;48.594;8.598;2023-05-08T06:07:10;13.30;99.90
16263;DHT22;8239;48.594;8.598;2023-05-08T06:09:36;13.40;99.90
16263;DHT22;8239;48.594;8.598;2023-05-08T06:12:05;13.50;99.90
16263;DHT22;8239;48.594;8.598;2023-05-08T06:14:32;13.60;99.90
16263;DHT22;8239;48.594;8.598;2023-05-08T06:16:59;13.60;99.90
16263;DHT22;8239;48.594;8.598;2023-05-08T06:19:26;13.70;99.90
16263;DHT22;8239;48.594;8.598;2023-05-08T06:21:53;13.80;99.90
16263;DHT22;8239;48.594;8.598;2023-05-08T06:24:20;13.90;99.90
16263;DHT22;8239;48.594;8.598;2023-05-08T06:26:47;14.00;99.90
16263;DHT22;8239;48.594;8.598;2023-05-08T06:29:16;14.10;99.90
16263;DHT22;8239;48.594;8.598;2023-05-08T06:31:43;14.20;99.90
16263;DHT22;8239;48.594;8.598;2023-05-08T06:34:10;14.30;99.90
16263;DHT22;8239;48.594;8.598;2023-05-08T06:36:37;14.50;99.90
16263;DHT22;8239;48.594;8.598;2023-05-08T06:39:05;14.50;99.90
16263;DHT22;8239;48.594;8.598;2023-05-08T06:41:32;14.60;99.90
16263;DHT22;8239;48.594;8.598;2023-05-08T06:43:59;14.60;99.90
16263;DHT22;8239;48.594;8.598;2023-05-08T06:46:27;14.50;99.90
16263;DHT22;8239;48.594;8.598;2023-05-08T06:48:54;14.60;99.90
16263;DHT22;8239;48.594;8.598;2023-05-08T06:51:21;14.70;99.90
16263;DHT22;8239;48.594;8.598;2023-05-08T06:53:48;14.80;99.90
16263;DHT22;8239;48.594;8.598;2023-05-08T06:56:15;15.00;99.90
16263;DHT22;8239;48.594;8.598;2023-05-08T06:58:42;15.10;99.90
16263;DHT22;8239;48.594;8.598;2023-05-08T07:01:09;15.20;99.90
16263;DHT22;8239;48.594;8.598;2023-05-08T07:03:37;15.40;99.90
16263;DHT22;8239;48.594;8.598;2023-05-08T07:06:06;15.40;99.90
16263;DHT22;8239;48.594;8.598;2023-05-08T07:08:34;15.50;99.90
16263;DHT22;8239;48.594;8.598;2023-05-08T07:11:01;15.70;99.90
16263;DHT22;8239;48.594;8.598;2023-05-08T07:13:28;15.70;99.90
16263;DHT22;8239;48.594;8.598;2023-05-08T07:15:56;15.70;99.90
16263;DHT22;8239;48.594;8.598;2023-05-08T07:18:23;15.80;99.90
16263;DHT22;8239;48.594;8.598;2023-05-08T07:20:51;15.80;99.90
16263;DHT22;8239;48.594;8.598;2023-05-08T07:23:18;15.90;99.90
16263;DHT22;8239;48.594;8.598;2023-05-08T07:25:46;15.90;99.90
16263;DHT22;8239;48.594;8.598;2023-05-08T07:28:13;15.80;99.90
16263;DHT22;8239;48.594;8.598;2023-05-08T07:30:40;15.80;99.90
16263;DHT22;8239;48.594;8.598;2023-05-08T07:33:07;15.90;99.90
16263;DHT22;8239;48.594;8.598;2023-05-08T07:35:34;16.10;99.90
16263;DHT22;8239;48.594;8.598;2023-05-08T07:38:02;16.20;99.90
16263;DHT22;8239;48.594;8.598;2023-05-08T07:40:29;16.40;99.90
16263;DHT22;8239;48.594;8.598;2023-05-08T07:42:56;16.50;99.90
16263;DHT22;8239;48.594;8.598;2023-05-08T07:45:23;16.60;99.90
16263;DHT22;8239;48.594;8.598;2023-05-08T07:47:51;16.70;99.90
16263;DHT22;8239;48.594;8.598;2023-05-08T07:50:18;16.90;99.90
16263;DHT22;8239;48.594;8.598;2023-05-08T07:52:46;17.00;99.90
16263;DHT22;8239;48.594;8.598;2023-05-08T07:55:15;17.10;99.90
16263;DHT22;8239;48.594;8.598;2023-05-08T07:57:43;17.10;99.90
16263;DHT22;8239;48.594;8.598;2023-05-08T08:00:12;17.20;99.90
16263;DHT22;8239;48.594;8.598;2023-05-08T08:02:39;17.20;99.90
16263;DHT22;8239;48.594;8.598;2023-05-08T08:05:07;17.20;99.90
16263;DHT22;8239;48.594;8.598;2023-05-08T08:07:34;17.10;99.90
16263;DHT22;8239;48.594;8.598;2023-05-08T08:10:02;17.10;99.90
16263;DHT22;8239;48.594;8.598;2023-05-08T08:12:30;17.10;99.90
16263;DHT22;8239;48.594;8.598;2023-05-08T08:14:57;17.00;99.90
16263;DHT22;8239;48.594;8.598;2023-05-08T08:17:27;16.90;99.90
16263;DHT22;8239;48.594;8.598;2023-05-08T08:19:54;17.00;99.90
16263;DHT22;8239;48.594;8.598;2023-05-08T08:22:21;17.00;99.90
16263;DHT22;8239;48.594;8.598;2023-05-08T08:24:48;17.30;99.90
16263;DHT22;8239;48.594;8.598;2023-05-08T08:27:15;17.60;99.90
16263;DHT22;8239;48.594;8.598;2023-05-08T08:29:43;18.00;99.90
16263;DHT22;8239;48.594;8.598;2023-05-08T08:32:11;18.30;99.90
16263;DHT22;8239;48.594;8.598;2023-05-08T08:34:38;18.70;99.90
16263;DHT22;8239;48.594;8.598;2023-05-08T08:37:05;18.90;99.90
16263;DHT22;8239;48.594;8.598;2023-05-08T08:39:32;19.20;99.90
16263;DHT22;8239;48.594;8.598;2023-05-08T08:42:00;19.40;99.90
16263;DHT22;8239;48.594;8.598;2023-05-08T08:44:27;19.60;99.90
16263;DHT22;8239;48.594;8.598;2023-05-08T08:46:57;19.70;99.90
16263;DHT22;8239;48.594;8.598;2023-05-08T08:49:28;19.60;99.90
16263;DHT22;8239;48.594;8.598;2023-05-08T08:51:57;19.50;99.90
16263;DHT22;8239;48.594;8.598;2023-05-08T08:54:28;19.40;99.90
16263;DHT22;8239;48.594;8.598;2023-05-08T08:57:00;19.40;99.90
16263;DHT22;8239;48.594;8.598;2023-05-08T08:59:28;19.40;99.90
16263;DHT22;8239;48.594;8.598;2023-05-08T09:02:00;19.50;99.90
16263;DHT22;8239;48.594;8.598;2023-05-08T09:04:31;19.50;99.90
16263;DHT22;8239;48.594;8.598;2023-05-08T09:06:59;19.50;99.90
16263;DHT22;8239;48.594;8.598;2023-05-08T09:09:27;19.50;99.90
16263;DHT22;8239;48.594;8.598;2023-05-08T09:11:54;19.50;99.90
16263;DHT22;8239;48.594;8.598;2023-05-08T09:14:21;19.50;99.90
16263;DHT22;8239;48.594;8.598;2023-05-08T09:16:50;19.50;99.90
16263;DHT22;8239;48.594;8.598;2023-05-08T09:19:18;19.50;99.90
16263;DHT22;8239;48.594;8.598;2023-05-08T09:21:46;19.60;99.90
16263;DHT22;8239;48.594;8.598;2023-05-08T09:24:14;19.80;99.90
16263;DHT22;8239;48.594;8.598;2023-05-08T09:26:41;20.20;99.90
16263;DHT22;8239;48.594;8.598;2023-05-08T09:29:10;20.80;99.90
16263;DHT22;8239;48.594;8.598;2023-05-08T09:31:38;21.30;99.90
16263;DHT22;8239;48.594;8.598;2023-05-08T09:34:05;21.60;99.90
16263;DHT22;8239;48.594;8.598;2023-05-08T09:36:34;21.70;99.70
16263;DHT22;8239;48.594;8.598;2023-05-08T09:39:02;21.80;98.50
16263;DHT22;8239;48.594;8.598;2023-05-08T09:41:29;21.70;98.50
16263;DHT22;8239;48.594;8.598;2023-05-08T09:44:01;21.50;97.90
16263;DHT22;8239;48.594;8.598;2023-05-08T09:46:29;21.30;97.90
16263;DHT22;8239;48.594;8.598;2023-05-08T09:48:57;21.10;98.40
16263;DHT22;8239;48.594;8.598;2023-05-08T09:51:25;20.90;98.50
16263;DHT22;8239;48.594;8.598;2023-05-08T09:53:55;20.90;98.70
16263;DHT22;8239;48.594;8.598;2023-05-08T09:56:32;20.90;98.60
16263;DHT22;8239;48.594;8.598;2023-05-08T09:59:02;20.90;98.20
16263;DHT22;8239;48.594;8.598;2023-05-08T10:01:31;21.00;97.80
16263;DHT22;8239;48.594;8.598;2023-05-08T10:03:58;21.00;97.70
16263;DHT22;8239;48.594;8.598;2023-05-08T10:06:26;20.90;96.90
16263;DHT22;8239;48.594;8.598;2023-05-08T10:09:11;20.70;95.30
16263;DHT22;8239;48.594;8.598;2023-05-08T10:11:39;20.20;97.10
16263;DHT22;8239;48.594;8.598;2023-05-08T10:14:06;19.70;98.90
16263;DHT22;8239;48.594;8.598;2023-05-08T10:16:41;19.20;99.90
16263;DHT22;8239;48.594;8.598;2023-05-08T10:19:12;18.80;99.90
16263;DHT22;8239;48.594;8.598;2023-05-08T10:21:41;18.60;99.90
16263;DHT22;8239;48.594;8.598;2023-05-08T10:24:15;18.50;99.90
16263;DHT22;8239;48.594;8.598;2023-05-08T10:26:47;18.40;99.90
16263;DHT22;8239;48.594;8.598;2023-05-08T10:29:23;18.40;99.90
16263;DHT22;8239;48.594;8.598;2023-05-08T10:31:53;18.40;99.90
16263;DHT22;8239;48.594;8.598;2023-05-08T10:34:22;18.40;99.90
16263;DHT22;8239;48.594;8.598;2023-05-08T10:36:49;18.40;99.90
16263;DHT22;8239;48.594;8.598;2023-05-08T10:39:20;18.40;99.90
16263;DHT22;8239;48.594;8.598;2023-05-08T10:41:47;18.50;99.90
16263;DHT22;8239;48.594;8.598;2023-05-08T10:44:15;18.60;99.90
16263;DHT22;8239;48.594;8.598;2023-05-08T10:46:48;18.80;99.90
16263;DHT22;8239;48.594;8.598;2023-05-08T10:49:21;18.90;99.90
16263;DHT22;8239;48.594;8.598;2023-05-08T10:51:55;19.10;99.90
16263;DHT22;8239;48.594;8.598;2023-05-08T10:54:37;19.40;99.90
16263;DHT22;8239;48.594;8.598;2023-05-08T10:57:08;19.40;99.90
16263;DHT22;8239;48.594;8.598;2023-05-08T10:59:36;19.30;99.90
16263;DHT22;8239;48.594;8.598;2023-05-08T11:02:04;19.10;99.90
16263;DHT22;8239;48.594;8.598;2023-05-08T11:04:32;19.00;99.90
16263;DHT22;8239;48.594;8.598;2023-05-08T11:07:00;18.90;99.90
16263;DHT22;8239;48.594;8.598;2023-05-08T11:09:46;18.70;99.90
16263;DHT22;8239;48.594;8.598;2023-05-08T11:12:20;18.60;99.90
16263;DHT22;8239;48.594;8.598;2023-05-08T11:14:59;18.60;99.90
16263;DHT22;8239;48.594;8.598;2023-05-08T11:17:26;18.60;99.90
16263;DHT22;8239;48.594;8.598;2023-05-08T11:19:58;18.70;99.90
16263;DHT22;8239;48.594;8.598;2023-05-08T11:22:29;18.60;99.90
16263;DHT22;8239;48.594;8.598;2023-05-08T11:25:06;18.60;99.90
16263;DHT22;8239;48.594;8.598;2023-05-08T11:28:09;18.60;99.90
16263;DHT22;8239;48.594;8.598;2023-05-08T11:30:37;18.70;99.90
16263;DHT22;8239;48.594;8.598;2023-05-08T11:33:29;18.80;99.90
16263;DHT22;8239;48.594;8.598;2023-05-08T11:35:58;18.80;99.90
16263;DHT22;8239;48.594;8.598;2023-05-08T11:38:28;18.60;99.90
16263;DHT22;8239;48.594;8.598;2023-05-08T11:41:01;18.50;99.90
16263;DHT22;8239;48.594;8.598;2023-05-08T11:46:37;18.40;99.90
16263;DHT22;8239;48.594;8.598;2023-05-08T11:49:08;18.40;99.90
16263;DHT22;8239;48.594;8.598;2023-05-08T11:51:36;18.30;99.90
16263;DHT22;8239;48.594;8.598;2023-05-08T11:54:04;18.30;99.90
16263;DHT22;8239;48.594;8.598;2023-05-08T11:56:33;18.30;99.90
16263;DHT22;8239;48.594;8.598;2023-05-08T11:59:03;18.20;99.90
16263;DHT22;8239;48.594;8.598;2023-05-08T12:01:31;18.20;99.90
16263;DHT22;8239;48.594;8.598;2023-05-08T12:04:02;18.10;99.90
16263;DHT22;8239;48.594;8.598;2023-05-08T12:06:30;18.10;99.90
16263;DHT22;8239;48.594;8.598;2023-05-08T12:08:58;18.00;99.90
16263;DHT22;8239;48.594;8.598;2023-05-08T12:11:25;18.00;99.90
16263;DHT22;8239;48.594;8.598;2023-05-08T12:13:54;18.10;99.90
16263;DHT22;8239;48.594;8.598;2023-05-08T12:16:22;18.20;99.90
16263;DHT22;8239;48.594;8.598;2023-05-08T12:18:51;18.20;99.90
16263;DHT22;8239;48.594;8.598;2023-05-08T12:21:20;18.40;99.90
16263;DHT22;8239;48.594;8.598;2023-05-08T12:23:47;18.50;99.90
16263;DHT22;8239;48.594;8.598;2023-05-08T12:26:16;18.60;99.90
16263;DHT22;8239;48.594;8.598;2023-05-08T12:28:44;18.60;99.90
16263;DHT22;8239;48.594;8.598;2023-05-08T12:31:14;18.70;99.90
16263;DHT22;8239;48.594;8.598;2023-05-08T12:33:42;18.60;99.90
16263;DHT22;8239;48.594;8.598;2023-05-08T12:36:10;18.60;99.90
16263;DHT22;8239;48.594;8.598;2023-05-08T12:38:37;18.50;99.90
16263;DHT22;8239;48.594;8.598;2023-05-08T12:41:04;18.40;99.90
16263;DHT22;8239;48.594;8.598;2023-05-08T12:43:34;18.20;99.90
16263;DHT22;8239;48.594;8.598;2023-05-08T12:46:01;18.10;99.90
16263;DHT22;8239;48.594;8.598;2023-05-08T12:48:30;18.00;99.90
16263;DHT22;8239;48.594;8.598;2023-05-08T12:51:03;17.80;99.90
16263;DHT22;8239;48.594;8.598;2023-05-08T12:53:32;17.80;99.90
16263;DHT22;8239;48.594;8.598;2023-05-08T12:56:01;17.80;99.90
16263;DHT22;8239;48.594;8.598;2023-05-08T12:58:31;17.80;99.90
16263;DHT22;8239;48.594;8.598;2023-05-08T13:01:05;17.80;99.90
16263;DHT22;8239;48.594;8.598;2023-05-08T13:03:36;17.90;99.90
16263;DHT22;8239;48.594;8.598;2023-05-08T13:06:03;17.90;99.90
16263;DHT22;8239;48.594;8.598;2023-05-08T13:08:31;18.00;99.90
16263;DHT22;8239;48.594;8.598;2023-05-08T13:10:59;18.10;99.90
16263;DHT22;8239;48.594;8.598;2023-05-08T13:13:28;18.20;99.90
16263;DHT22;8239;48.594;8.598;2023-05-08T13:15:56;18.30;99.90
16263;DHT22;8239;48.594;8.598;2023-05-08T13:18:24;18.30;99.90
16263;DHT22;8239;48.594;8.598;2023-05-08T13:20:53;18.30;99.90
16263;DHT22;8239;48.594;8.598;2023-05-08T13:23:21;18.40;99.90
16263;DHT22;8239;48.594;8.598;2023-05-08T13:25:48;18.50;99.90
16263;DHT22;8239;48.594;8.598;2023-05-08T13:28:16;18.70;99.90
16263;DHT22;8239;48.594;8.598;2023-05-08T13:30:43;18.90;99.90
16263;DHT22;8239;48.594;8.598;2023-05-08T13:33:10;19.10;99.90
16263;DHT22;8239;48.594;8.598;2023-05-08T13:35:37;19.50;99.90
16263;DHT22;8239;48.594;8.598;2023-05-08T13:38:06;19.70;99.90
16263;DHT22;8239;48.594;8.598;2023-05-08T13:40:33;20.00;99.90
16263;DHT22;8239;48.594;8.598;2023-05-08T13:43:00;20.20;99.90
16263;DHT22;8239;48.594;8.598;2023-05-08T13:45:27;20.20;99.90
16263;DHT22;8239;48.594;8.598;2023-05-08T13:47:54;20.20;99.90
16263;DHT22;8239;48.594;8.598;2023-05-08T13:50:21;20.20;99.90
16263;DHT22;8239;48.594;8.598;2023-05-08T13:52:48;20.20;99.90
16263;DHT22;8239;48.594;8.598;2023-05-08T13:55:17;20.20;99.90
16263;DHT22;8239;48.594;8.598;2023-05-08T13:57:46;20.10;99.90
16263;DHT22;8239;48.594;8.598;2023-05-08T14:00:14;19.80;99.90
16263;DHT22;8239;48.594;8.598;2023-05-08T14:02:41;19.60;99.90
16263;DHT22;8239;48.594;8.598;2023-05-08T14:05:09;19.40;99.90
16263;DHT22;8239;48.594;8.598;2023-05-08T14:07:36;19.40;99.90
16263;DHT22;8239;48.594;8.598;2023-05-08T14:10:06;19.50;99.90
16263;DHT22;8239;48.594;8.598;2023-05-08T14:12:35;19.80;99.90
16263;DHT22;8239;48.594;8.598;2023-05-08T14:15:03;20.10;99.90
16263;DHT22;8239;48.594;8.598;2023-05-08T14:17:31;20.50;99.90
16263;DHT22;8239;48.594;8.598;2023-05-08T14:19:58;21.00;99.90
16263;DHT22;8239;48.594;8.598;2023-05-08T14:22:25;21.50;99.90
16263;DHT22;8239;48.594;8.598;2023-05-08T14:24:52;21.90;99.90
16263;DHT22;8239;48.594;8.598;2023-05-08T14:27:19;22.30;99.90
16263;DHT22;8239;48.594;8.598;2023-05-08T14:29:47;22.90;99.10
16263;DHT22;8239;48.594;8.598;2023-05-08T14:32:14;23.40;97.50
16263;DHT22;8239;48.594;8.598;2023-05-08T14:34:42;23.70;96.30
16263;DHT22;8239;48.594;8.598;2023-05-08T14:37:09;23.80;95.60
16263;DHT22;8239;48.594;8.598;2023-05-08T14:39:37;23.70;94.90
16263;DHT22;8239;48.594;8.598;2023-05-08T14:42:04;23.80;93.70
16263;DHT22;8239;48.594;8.598;2023-05-08T14:44:31;23.60;92.90
16263;DHT22;8239;48.594;8.598;2023-05-08T14:47:00;23.60;92.10
16263;DHT22;8239;48.594;8.598;2023-05-08T14:49:27;23.60;91.80
16263;DHT22;8239;48.594;8.598;2023-05-08T14:51:54;23.80;91.40
16263;DHT22;8239;48.594;8.598;2023-05-08T14:54:21;24.00;91.20
16263;DHT22;8239;48.594;8.598;2023-05-08T14:56:48;24.20;91.00
16263;DHT22;8239;48.594;8.598;2023-05-08T14:59:15;24.00;85.90
16263;DHT22;8239;48.594;8.598;2023-05-08T15:01:42;24.20;88.80
16263;DHT22;8239;48.594;8.598;2023-05-08T15:04:10;24.40;88.70
16263;DHT22;8239;48.594;8.598;2023-05-08T15:06:38;24.60;87.90
16263;DHT22;8239;48.594;8.598;2023-05-08T15:09:06;24.70;85.20
16263;DHT22;8239;48.594;8.598;2023-05-08T15:11:34;24.40;81.20
16263;DHT22;8239;48.594;8.598;2023-05-08T15:14:02;23.90;81.60
16263;DHT22;8239;48.594;8.598;2023-05-08T15:16:29;23.40;81.20
16263;DHT22;8239;48.594;8.598;2023-05-08T15:18:56;23.00;82.30
16263;DHT22;8239;48.594;8.598;2023-05-08T15:21:24;22.70;84.50
16263;DHT22;8239;48.594;8.598;2023-05-08T15:23:52;22.50;84.70
16263;DHT22;8239;48.594;8.598;2023-05-08T15:26:19;22.40;85.50
16263;DHT22;8239;48.594;8.598;2023-05-08T15:28:46;22.30;85.90
16263;DHT22;8239;48.594;8.598;2023-05-08T15:31:13;22.30;88.60
16263;DHT22;8239;48.594;8.598;2023-05-08T15:33:40;22.30;86.90
16263;DHT22;8239;48.594;8.598;2023-05-08T15:36:10;22.30;86.90
16263;DHT22;8239;48.594;8.598;2023-05-08T15:38:38;22.10;84.40
16263;DHT22;8239;48.594;8.598;2023-05-08T15:41:05;22.10;86.40
16263;DHT22;8239;48.594;8.598;2023-05-08T15:43:35;22.10;87.00
16263;DHT22;8239;48.594;8.598;2023-05-08T15:46:02;22.00;85.70
16263;DHT22;8239;48.594;8.598;2023-05-08T15:48:30;21.90;86.40
16263;DHT22;8239;48.594;8.598;2023-05-08T15:50:57;21.80;86.70
16263;DHT22;8239;48.594;8.598;2023-05-08T15:53:24;21.60;87.10
16263;DHT22;8239;48.594;8.598;2023-05-08T15:55:52;21.40;88.40
16263;DHT22;8239;48.594;8.598;2023-05-08T15:58:20;21.20;89.70
16263;DHT22;8239;48.594;8.598;2023-05-08T16:00:47;21.10;90.20
16263;DHT22;8239;48.594;8.598;2023-05-08T16:03:14;20.80;90.90